sensor_id;sensor_type;location;lat;lon;timestamp;temperature;humidity
8633;DHT22;4354;49.832;10.746;2023-08-07T00:02:00;12.30;99.90
8633;DHT22;4354;49.832;10.746;2023-08-07T00:04:28;12.40;99.90
8633;DHT22;4354;49.832;10.746;2023-08-07T00:06:55;12.30;99.90
8633;DHT22;4354;49.832;10.746;2023-08-07T00:09:21;12.30;99.90
8633;DHT22;4354;49.832;10.746;2023-08-07T00:11:48;12.30;99.90
8633;DHT22;4354;49.832;10.746;2023-08-07T00:14:15;12.40;99.90
8633;DHT22;4354;49.832;10.746;2023-08-07T00:16:42;12.30;99.90
8633;DHT22;4354;49.832;10.746;2023-08-07T00:19:09;12.30;99.90
8633;DHT22;4354;49.832;10.746;2023-08-07T00:21:36;12.30;99.90
8633;DHT22;4354;49.832;10.746;2023-08-07T00:24:03;12.30;99.90
8633;DHT22;4354;49.832;10.746;2023-08-07T00:26:30;12.30;99.90
8633;DHT22;4354;49.832;10.746;2023-08-07T00:28:58;12.30;99.90
8633;DHT22;4354;49.832;10.746;2023-08-07T00:31:25;12.30;99.90
8633;DHT22;4354;49.832;10.746;2023-08-07T00:33:52;12.30;99.90
8633;DHT22;4354;49.832;10.746;2023-08-07T00:36:21;12.30;99.90
8633;DHT22;4354;49.832;10.746;2023-08-07T00:38:47;12.40;99.90
8633;DHT22;4354;49.832;10.746;2023-08-07T00:41:17;12.30;99.90
8633;DHT22;4354;49.832;10.746;2023-08-07T00:43:44;12.30;99.90
8633;DHT22;4354;49.832;10.746;2023-08-07T00:46:11;12.30;99.90
8633;DHT22;4354;49.832;10.746;2023-08-07T00:48:38;12.30;99.90
8633;DHT22;4354;49.832;10.746;2023-08-07T00:51:06;12.30;99.90
8633;DHT22;4354;49.832;10.746;2023-08-07T00:53:38;12.30;99.90
8633;DHT22;4354;49.832;10.746;2023-08-07T00:56:05;12.20;99.90
8633;DHT22;4354;49.832;10.746;2023-08-07T00:58:32;12.30;99.90
8633;DHT22;4354;49.832;10.746;2023-08-07T01:01:00;12.30;99.90
8633;DHT22;4354;49.832;10.746;2023-08-07T01:03:27;12.20;99.90
8633;DHT22;4354;49.832;10.746;2023-08-07T01:05:54;12.30;99.90
8633;DHT22;4354;49.832;10.746;2023-08-07T01:08:21;12.30;99.90
8633;DHT22;4354;49.832;10.746;2023-08-07T01:13:37;12.30;99.90
8633;DHT22;4354;49.832;10.746;2023-08-07T01:16:10;12.30;99.90
8633;DHT22;4354;49.832;10.746;2023-08-07T01:18:38;12.30;99.90
8633;DHT22;4354;49.832;10.746;2023-08-07T01:21:06;12.30;99.90
8633;DHT22;4354;49.832;10.746;2023-08-07T01:23:33;12.30;99.90
8633;DHT22;4354;49.832;10.746;2023-08-07T01:25:59;12.20;99.90
8633;DHT22;4354;49.832;10.746;2023-08-07T01:28:31;12.20;99.90
8633;DHT22;4354;49.832;10.746;2023-08-07T01:31:03;12.20;99.90
8633;DHT22;4354;49.832;10.746;2023-08-07T01:33:46;12.20;99.90
8633;DHT22;4354;49.832;10.746;2023-08-07T01:36:14;12.30;99.90
8633;DHT22;4354;49.832;10.746;2023-08-07T01:38:45;12.20;99.90
8633;DHT22;4354;49.832;10.746;2023-08-07T01:41:12;12.20;99.90
8633;DHT22;4354;49.832;10.746;2023-08-07T01:43:40;12.20;99.90
8633;DHT22;4354;49.832;10.746;2023-08-07T01:46:07;12.20;99.90
8633;DHT22;4354;49.832;10.746;2023-08-07T01:48:33;12.20;99.90
8633;DHT22;4354;49.832;10.746;2023-08-07T01:51:00;12.10;99.90
8633;DHT22;4354;49.832;10.746;2023-08-07T01:53:27;12.20;99.90
8633;DHT22;4354;49.832;10.746;2023-08-07T01:55:54;12.20;99.90
8633;DHT22;4354;49.832;10.746;2023-08-07T01:58:20;12.20;99.90
8633;DHT22;4354;49.832;10.746;2023-08-07T02:00:47;12.10;99.90
8633;DHT22;4354;49.832;10.746;2023-08-07T02:03:14;12.10;99.90
8633;DHT22;4354;49.832;10.746;2023-08-07T02:05:41;12.10;99.90
8633;DHT22;4354;49.832;10.746;2023-08-07T02:08:08;12.10;99.90
8633;DHT22;4354;49.832;10.746;2023-08-07T02:10:34;12.10;99.90
8633;DHT22;4354;49.832;10.746;2023-08-07T02:13:01;12.00;99.90
8633;DHT22;4354;49.832;10.746;2023-08-07T02:15:28;12.00;99.90
8633;DHT22;4354;49.832;10.746;2023-08-07T02:17:55;12.00;99.90
8633;DHT22;4354;49.832;10.746;2023-08-07T02:20:22;12.00;99.90
8633;DHT22;4354;49.832;10.746;2023-08-07T02:22:49;12.00;99.90
8633;DHT22;4354;49.832;10.746;2023-08-07T02:25:15;12.00;99.90
8633;DHT22;4354;49.832;10.746;2023-08-07T02:27:42;12.00;99.90
8633;DHT22;4354;49.832;10.746;2023-08-07T02:30:09;12.00;99.90
8633;DHT22;4354;49.832;10.746;2023-08-07T02:32:36;12.00;99.90
8633;DHT22;4354;49.832;10.746;2023-08-07T02:35:03;12.00;99.90
8633;DHT22;4354;49.832;10.746;2023-08-07T02:37:30;11.90;99.90
8633;DHT22;4354;49.832;10.746;2023-08-07T02:39:57;11.90;99.90
8633;DHT22;4354;49.832;10.746;2023-08-07T02:42:23;11.90;99.90
8633;DHT22;4354;49.832;10.746;2023-08-07T02:44:50;11.90;99.90
8633;DHT22;4354;49.832;10.746;2023-08-07T02:47:17;11.90;99.90
8633;DHT22;4354;49.832;10.746;2023-08-07T02:49:44;11.90;99.90
8633;DHT22;4354;49.832;10.746;2023-08-07T02:52:10;11.90;99.90
8633;DHT22;4354;49.832;10.746;2023-08-07T02:54:37;11.90;99.90
8633;DHT22;4354;49.832;10.746;2023-08-07T02:57:04;11.90;99.90
8633;DHT22;4354;49.832;10.746;2023-08-07T02:59:31;11.80;99.90
8633;DHT22;4354;49.832;10.746;2023-08-07T03:01:57;11.80;99.90
8633;DHT22;4354;49.832;10.746;2023-08-07T03:04:24;11.80;99.90
8633;DHT22;4354;49.832;10.746;2023-08-07T03:06:51;11.80;99.90
8633;DHT22;4354;49.832;10.746;2023-08-07T03:09:18;11.80;99.90
8633;DHT22;4354;49.832;10.746;2023-08-07T03:11:45;11.80;99.90
8633;DHT22;4354;49.832;10.746;2023-08-07T03:14:12;11.80;99.90
8633;DHT22;4354;49.832;10.746;2023-08-07T03:16:39;11.80;99.90
8633;DHT22;4354;49.832;10.746;2023-08-07T03:19:06;11.80;99.90
8633;DHT22;4354;49.832;10.746;2023-08-07T03:21:32;11.70;99.90
8633;DHT22;4354;49.832;10.746;2023-08-07T03:23:59;11.80;99.90
8633;DHT22;4354;49.832;10.746;2023-08-07T03:26:26;11.80;99.90
8633;DHT22;4354;49.832;10.746;2023-08-07T03:28:53;11.70;99.90
8633;DHT22;4354;49.832;10.746;2023-08-07T03:31:19;11.70;99.90
8633;DHT22;4354;49.832;10.746;2023-08-07T03:33:46;11.70;99.90
8633;DHT22;4354;49.832;10.746;2023-08-07T03:36:13;11.70;99.90
8633;DHT22;4354;49.832;10.746;2023-08-07T03:38:40;11.80;99.90
8633;DHT22;4354;49.832;10.746;2023-08-07T03:41:07;11.70;99.90
8633;DHT22;4354;49.832;10.746;2023-08-07T03:43:33;11.80;99.90
8633;DHT22;4354;49.832;10.746;2023-08-07T03:46:00;11.70;99.90
8633;DHT22;4354;49.832;10.746;2023-08-07T03:48:29;11.70;99.90
8633;DHT22;4354;49.832;10.746;2023-08-07T03:51:05;11.70;99.90
8633;DHT22;4354;49.832;10.746;2023-08-07T03:53:32;11.70;99.90
8633;DHT22;4354;49.832;10.746;2023-08-07T03:55:59;11.70;99.90
8633;DHT22;4354;49.832;10.746;2023-08-07T03:58:27;11.60;99.90
8633;DHT22;4354;49.832;10.746;2023-08-07T04:00:53;11.60;99.90
8633;DHT22;4354;49.832;10.746;2023-08-07T04:03:20;11.60;99.90
8633;DHT22;4354;49.832;10.746;2023-08-07T04:05:52;11.60;99.90
8633;DHT22;4354;49.832;10.746;2023-08-07T04:08:21;11.60;99.90
8633;DHT22;4354;49.832;10.746;2023-08-07T04:11:01;11.60;99.90
8633;DHT22;4354;49.832;10.746;2023-08-07T04:13:28;11.60;99.90
8633;DHT22;4354;49.832;10.746;2023-08-07T04:15:55;11.60;99.90
8633;DHT22;4354;49.832;10.746;2023-08-07T04:18:22;11.60;99.90
8633;DHT22;4354;49.832;10.746;2023-08-07T04:20:50;11.60;99.90
8633;DHT22;4354;49.832;10.746;2023-08-07T04:23:18;11.60;99.90
8633;DHT22;4354;49.832;10.746;2023-08-07T04:25:45;11.50;99.90
8633;DHT22;4354;49.832;10.746;2023-08-07T04:28:13;11.60;99.90
8633;DHT22;4354;49.832;10.746;2023-08-07T04:30:41;11.60;99.90
8633;DHT22;4354;49.832;10.746;2023-08-07T04:33:08;11.50;99.90
8633;DHT22;4354;49.832;10.746;2023-08-07T04:35:35;11.60;99.90
8633;DHT22;4354;49.832;10.746;2023-08-07T04:38:02;11.60;99.90
8633;DHT22;4354;49.832;10.746;2023-08-07T04:40:29;11.60;99.90
8633;DHT22;4354;49.832;10.746;2023-08-07T04:42:56;11.60;99.90
8633;DHT22;4354;49.832;10.746;2023-08-07T04:45:23;11.60;99.90
8633;DHT22;4354;49.832;10.746;2023-08-07T04:47:50;11.50;99.90
8633;DHT22;4354;49.832;10.746;2023-08-07T04:50:17;11.60;99.90
8633;DHT22;4354;49.832;10.746;2023-08-07T04:52:44;11.60;99.90
8633;DHT22;4354;49.832;10.746;2023-08-07T04:55:11;11.60;99.90
8633;DHT22;4354;49.832;10.746;2023-08-07T04:57:38;11.70;99.90
8633;DHT22;4354;49.832;10.746;2023-08-07T05:00:05;11.60;99.90
8633;DHT22;4354;49.832;10.746;2023-08-07T05:02:39;11.60;99.90
8633;DHT22;4354;49.832;10.746;2023-08-07T05:05:06;11.70;99.90
8633;DHT22;4354;49.832;10.746;2023-08-07T05:07:33;11.70;99.90
8633;DHT22;4354;49.832;10.746;2023-08-07T05:10:04;11.70;99.90
8633;DHT22;4354;49.832;10.746;2023-08-07T05:12:31;11.70;99.90
8633;DHT22;4354;49.832;10.746;2023-08-07T05:15:01;11.70;99.90
8633;DHT22;4354;49.832;10.746;2023-08-07T05:17:28;11.70;99.90
8633;DHT22;4354;49.832;10.746;2023-08-07T05:19:54;11.80;99.90
8633;DHT22;4354;49.832;10.746;2023-08-07T05:22:21;11.90;99.90
8633;DHT22;4354;49.832;10.746;2023-08-07T05:24:48;11.90;99.90
8633;DHT22;4354;49.832;10.746;2023-08-07T05:27:15;12.00;99.90
8633;DHT22;4354;49.832;10.746;2023-08-07T05:29:42;12.10;99.90
8633;DHT22;4354;49.832;10.746;2023-08-07T05:32:13;12.20;99.90
8633;DHT22;4354;49.832;10.746;2023-08-07T05:34:40;12.20;99.90
8633;DHT22;4354;49.832;10.746;2023-08-07T05:37:07;12.30;99.90
8633;DHT22;4354;49.832;10.746;2023-08-07T05:39:35;12.40;99.90
8633;DHT22;4354;49.832;10.746;2023-08-07T05:42:02;12.40;99.90
8633;DHT22;4354;49.832;10.746;2023-08-07T05:44:29;12.40;99.30
8633;DHT22;4354;49.832;10.746;2023-08-07T05:46:56;12.40;99.90
8633;DHT22;4354;49.832;10.746;2023-08-07T05:49:23;12.40;99.90
8633;DHT22;4354;49.832;10.746;2023-08-07T05:51:52;12.30;99.90
8633;DHT22;4354;49.832;10.746;2023-08-07T05:54:20;12.30;99.90
8633;DHT22;4354;49.832;10.746;2023-08-07T05:56:47;12.20;99.90
8633;DHT22;4354;49.832;10.746;2023-08-07T05:59:14;12.10;99.90
8633;DHT22;4354;49.832;10.746;2023-08-07T06:01:42;12.10;99.90
8633;DHT22;4354;49.832;10.746;2023-08-07T06:04:09;12.10;99.90
8633;DHT22;4354;49.832;10.746;2023-08-07T06:06:36;12.10;99.90
8633;DHT22;4354;49.832;10.746;2023-08-07T06:11:33;12.10;99.90
8633;DHT22;4354;49.832;10.746;2023-08-07T06:14:01;12.00;99.90
8633;DHT22;4354;49.832;10.746;2023-08-07T06:16:28;12.10;99.90
8633;DHT22;4354;49.832;10.746;2023-08-07T06:18:55;12.10;99.90
8633;DHT22;4354;49.832;10.746;2023-08-07T06:21:22;12.10;99.90
8633;DHT22;4354;49.832;10.746;2023-08-07T06:23:48;12.00;99.90
8633;DHT22;4354;49.832;10.746;2023-08-07T06:26:15;12.00;99.90
8633;DHT22;4354;49.832;10.746;2023-08-07T06:28:42;12.00;99.90
8633;DHT22;4354;49.832;10.746;2023-08-07T06:31:10;11.90;99.90
8633;DHT22;4354;49.832;10.746;2023-08-07T06:33:38;11.80;99.90
8633;DHT22;4354;49.832;10.746;2023-08-07T06:36:07;11.90;99.90
8633;DHT22;4354;49.832;10.746;2023-08-07T06:38:35;11.80;99.90
8633;DHT22;4354;49.832;10.746;2023-08-07T06:41:02;11.90;99.90
8633;DHT22;4354;49.832;10.746;2023-08-07T06:43:29;11.90;99.90
8633;DHT22;4354;49.832;10.746;2023-08-07T06:45:56;11.90;99.90
8633;DHT22;4354;49.832;10.746;2023-08-07T06:48:23;11.90;99.90
8633;DHT22;4354;49.832;10.746;2023-08-07T06:50:51;11.90;99.90
8633;DHT22;4354;49.832;10.746;2023-08-07T06:53:18;12.00;99.90
8633;DHT22;4354;49.832;10.746;2023-08-07T06:55:45;12.00;99.90
8633;DHT22;4354;49.832;10.746;2023-08-07T06:58:13;12.00;99.90
8633;DHT22;4354;49.832;10.746;2023-08-07T07:00:40;12.00;99.90
8633;DHT22;4354;49.832;10.746;2023-08-07T07:03:07;12.00;99.90
8633;DHT22;4354;49.832;10.746;2023-08-07T07:05:36;12.00;99.90
8633;DHT22;4354;49.832;10.746;2023-08-07T07:08:03;12.00;99.90
8633;DHT22;4354;49.832;10.746;2023-08-07T07:10:31;12.00;99.90
8633;DHT22;4354;49.832;10.746;2023-08-07T07:12:58;12.00;99.90
8633;DHT22;4354;49.832;10.746;2023-08-07T07:15:24;12.00;99.90
8633;DHT22;4354;49.832;10.746;2023-08-07T07:17:51;12.10;99.90
8633;DHT22;4354;49.832;10.746;2023-08-07T07:20:18;12.10;99.90
8633;DHT22;4354;49.832;10.746;2023-08-07T07:22:45;12.00;99.90
8633;DHT22;4354;49.832;10.746;2023-08-07T07:25:12;12.10;99.90
8633;DHT22;4354;49.832;10.746;2023-08-07T07:27:39;12.20;99.90
8633;DHT22;4354;49.832;10.746;2023-08-07T07:30:06;12.30;99.90
8633;DHT22;4354;49.832;10.746;2023-08-07T07:32:33;12.40;99.90
8633;DHT22;4354;49.832;10.746;2023-08-07T07:35:01;12.50;99.90
8633;DHT22;4354;49.832;10.746;2023-08-07T07:37:27;12.60;99.90
8633;DHT22;4354;49.832;10.746;2023-08-07T07:39:54;12.70;99.90
8633;DHT22;4354;49.832;10.746;2023-08-07T07:42:21;12.80;99.90
8633;DHT22;4354;49.832;10.746;2023-08-07T07:44:48;12.90;99.20
8633;DHT22;4354;49.832;10.746;2023-08-07T07:47:14;13.00;96.90
8633;DHT22;4354;49.832;10.746;2023-08-07T07:49:45;13.20;81.30
8633;DHT22;4354;49.832;10.746;2023-08-07T07:52:14;13.30;67.40
8633;DHT22;4354;49.832;10.746;2023-08-07T07:54:41;13.20;54.90
8633;DHT22;4354;49.832;10.746;2023-08-07T07:57:08;13.30;53.50
8633;DHT22;4354;49.832;10.746;2023-08-07T07:59:35;13.20;66.40
8633;DHT22;4354;49.832;10.746;2023-08-07T08:02:02;13.30;57.70
8633;DHT22;4354;49.832;10.746;2023-08-07T08:04:28;13.30;65.40
8633;DHT22;4354;49.832;10.746;2023-08-07T08:06:55;13.20;59.40
8633;DHT22;4354;49.832;10.746;2023-08-07T08:09:22;13.20;69.00
8633;DHT22;4354;49.832;10.746;2023-08-07T08:11:49;13.20;86.70
8633;DHT22;4354;49.832;10.746;2023-08-07T08:14:16;13.20;80.00
8633;DHT22;4354;49.832;10.746;2023-08-07T08:16:43;13.20;75.90
8633;DHT22;4354;49.832;10.746;2023-08-07T08:19:09;13.30;72.50
8633;DHT22;4354;49.832;10.746;2023-08-07T08:21:36;13.30;81.20
8633;DHT22;4354;49.832;10.746;2023-08-07T08:24:04;13.40;58.70
8633;DHT22;4354;49.832;10.746;2023-08-07T08:26:31;13.20;56.00
8633;DHT22;4354;49.832;10.746;2023-08-07T08:28:57;13.20;85.40
8633;DHT22;4354;49.832;10.746;2023-08-07T08:31:24;13.20;85.80
8633;DHT22;4354;49.832;10.746;2023-08-07T08:33:51;13.20;69.70
8633;DHT22;4354;49.832;10.746;2023-08-07T08:36:18;13.20;89.20
8633;DHT22;4354;49.832;10.746;2023-08-07T08:38:45;13.20;78.60
8633;DHT22;4354;49.832;10.746;2023-08-07T08:41:16;13.00;88.10
8633;DHT22;4354;49.832;10.746;2023-08-07T08:43:45;13.10;92.00
8633;DHT22;4354;49.832;10.746;2023-08-07T08:46:14;13.20;89.00
8633;DHT22;4354;49.832;10.746;2023-08-07T08:48:49;13.20;82.90
8633;DHT22;4354;49.832;10.746;2023-08-07T08:51:16;13.30;83.30
8633;DHT22;4354;49.832;10.746;2023-08-07T08:53:47;13.40;83.10
8633;DHT22;4354;49.832;10.746;2023-08-07T08:56:16;13.50;79.20
8633;DHT22;4354;49.832;10.746;2023-08-07T08:58:43;13.70;67.00
8633;DHT22;4354;49.832;10.746;2023-08-07T09:01:11;13.70;66.90
8633;DHT22;4354;49.832;10.746;2023-08-07T09:03:39;13.70;46.90
8633;DHT22;4354;49.832;10.746;2023-08-07T09:06:06;13.70;31.70
8633;DHT22;4354;49.832;10.746;2023-08-07T09:08:34;13.60;41.70
8633;DHT22;4354;49.832;10.746;2023-08-07T09:11:02;13.50;56.70
8633;DHT22;4354;49.832;10.746;2023-08-07T09:13:32;13.40;37.60
8633;DHT22;4354;49.832;10.746;2023-08-07T09:16:00;13.30;50.50
8633;DHT22;4354;49.832;10.746;2023-08-07T09:18:28;13.10;60.50
8633;DHT22;4354;49.832;10.746;2023-08-07T09:20:55;13.10;53.30
8633;DHT22;4354;49.832;10.746;2023-08-07T09:23:24;13.10;59.90
8633;DHT22;4354;49.832;10.746;2023-08-07T09:26:02;13.00;65.60
8633;DHT22;4354;49.832;10.746;2023-08-07T09:28:29;13.00;52.70
8633;DHT22;4354;49.832;10.746;2023-08-07T09:30:56;13.00;60.00
8633;DHT22;4354;49.832;10.746;2023-08-07T09:33:28;13.10;61.00
8633;DHT22;4354;49.832;10.746;2023-08-07T09:35:59;13.10;62.40
8633;DHT22;4354;49.832;10.746;2023-08-07T09:38:30;13.00;57.00
8633;DHT22;4354;49.832;10.746;2023-08-07T09:41:03;13.00;63.30
8633;DHT22;4354;49.832;10.746;2023-08-07T09:43:36;13.10;60.00
8633;DHT22;4354;49.832;10.746;2023-08-07T09:46:07;13.10;51.50
8633;DHT22;4354;49.832;10.746;2023-08-07T09:48:41;13.10;48.50
8633;DHT22;4354;49.832;10.746;2023-08-07T09:51:09;13.10;52.60
8633;DHT22;4354;49.832;10.746;2023-08-07T09:53:36;13.20;50.00
8633;DHT22;4354;49.832;10.746;2023-08-07T09:56:03;13.30;50.70
8633;DHT22;4354;49.832;10.746;2023-08-07T09:58:31;13.50;48.30
8633;DHT22;4354;49.832;10.746;2023-08-07T10:01:03;13.50;22.40
8633;DHT22;4354;49.832;10.746;2023-08-07T10:03:31;13.60;1.00
8633;DHT22;4354;49.832;10.746;2023-08-07T10:05:59;13.70;1.00
8633;DHT22;4354;49.832;10.746;2023-08-07T10:08:26;13.70;1.00
8633;DHT22;4354;49.832;10.746;2023-08-07T10:10:54;13.80;1.00
8633;DHT22;4354;49.832;10.746;2023-08-07T10:13:21;13.90;1.00
8633;DHT22;4354;49.832;10.746;2023-08-07T10:16:04;14.00;1.00
8633;DHT22;4354;49.832;10.746;2023-08-07T10:18:31;14.30;1.00
8633;DHT22;4354;49.832;10.746;2023-08-07T10:20:57;14.30;1.00
8633;DHT22;4354;49.832;10.746;2023-08-07T10:23:25;14.30;1.00
8633;DHT22;4354;49.832;10.746;2023-08-07T10:25:53;14.30;1.00
8633;DHT22;4354;49.832;10.746;2023-08-07T10:28:22;14.20;1.00
8633;DHT22;4354;49.832;10.746;2023-08-07T10:30:51;14.30;1.00
8633;DHT22;4354;49.832;10.746;2023-08-07T10:33:19;14.20;1.00
8633;DHT22;4354;49.832;10.746;2023-08-07T10:35:47;14.20;1.00
8633;DHT22;4354;49.832;10.746;2023-08-07T10:38:20;14.10;1.00
8633;DHT22;4354;49.832;10.746;2023-08-07T10:41:12;14.20;1.00
8633;DHT22;4354;49.832;10.746;2023-08-07T10:43:40;14.20;1.00
8633;DHT22;4354;49.832;10.746;2023-08-07T10:46:12;14.20;1.00
8633;DHT22;4354;49.832;10.746;2023-08-07T10:48:44;14.10;1.00
8633;DHT22;4354;49.832;10.746;2023-08-07T10:51:19;14.00;1.00
8633;DHT22;4354;49.832;10.746;2023-08-07T10:53:48;14.20;1.00
8633;DHT22;4354;49.832;10.746;2023-08-07T10:58:52;14.20;1.00
8633;DHT22;4354;49.832;10.746;2023-08-07T11:01:20;14.40;1.00
8633;DHT22;4354;49.832;10.746;2023-08-07T11:03:55;14.50;1.00
8633;DHT22;4354;49.832;10.746;2023-08-07T11:06:24;14.60;1.00
8633;DHT22;4354;49.832;10.746;2023-08-07T11:08:53;14.70;1.00
8633;DHT22;4354;49.832;10.746;2023-08-07T11:11:20;14.60;1.00
8633;DHT22;4354;49.832;10.746;2023-08-07T11:13:50;14.60;1.00
8633;DHT22;4354;49.832;10.746;2023-08-07T11:16:18;14.70;1.00
8633;DHT22;4354;49.832;10.746;2023-08-07T11:18:49;14.90;1.00
8633;DHT22;4354;49.832;10.746;2023-08-07T11:21:16;15.10;1.00
8633;DHT22;4354;49.832;10.746;2023-08-07T11:23:43;15.20;1.00
8633;DHT22;4354;49.832;10.746;2023-08-07T11:26:11;15.20;1.00
8633;DHT22;4354;49.832;10.746;2023-08-07T11:28:38;15.20;1.00
8633;DHT22;4354;49.832;10.746;2023-08-07T11:31:06;15.20;1.00
8633;DHT22;4354;49.832;10.746;2023-08-07T11:33:33;15.40;99.90
8633;DHT22;4354;49.832;10.746;2023-08-07T11:36:00;15.60;1.00
8633;DHT22;4354;49.832;10.746;2023-08-07T11:38:36;15.30;1.00
8633;DHT22;4354;49.832;10.746;2023-08-07T11:41:04;15.30;1.00
8633;DHT22;4354;49.832;10.746;2023-08-07T11:43:35;15.30;99.90
8633;DHT22;4354;49.832;10.746;2023-08-07T11:46:04;15.30;99.90
8633;DHT22;4354;49.832;10.746;2023-08-07T11:48:33;15.40;1.00
8633;DHT22;4354;49.832;10.746;2023-08-07T11:51:01;15.20;99.90
8633;DHT22;4354;49.832;10.746;2023-08-07T11:53:29;15.00;1.00
8633;DHT22;4354;49.832;10.746;2023-08-07T11:56:00;15.20;1.00
8633;DHT22;4354;49.832;10.746;2023-08-07T11:58:32;15.00;1.00
8633;DHT22;4354;49.832;10.746;2023-08-07T12:01:04;14.90;1.00
8633;DHT22;4354;49.832;10.746;2023-08-07T12:03:35;14.80;1.00
8633;DHT22;4354;49.832;10.746;2023-08-07T12:06:04;14.60;1.00
8633;DHT22;4354;49.832;10.746;2023-08-07T12:08:39;14.60;1.00
8633;DHT22;4354;49.832;10.746;2023-08-07T12:11:08;14.50;1.00
8633;DHT22;4354;49.832;10.746;2023-08-07T12:13:43;14.40;1.00
8633;DHT22;4354;49.832;10.746;2023-08-07T12:16:12;14.40;1.00
8633;DHT22;4354;49.832;10.746;2023-08-07T12:18:50;14.40;1.00
8633;DHT22;4354;49.832;10.746;2023-08-07T12:21:21;14.30;1.00
8633;DHT22;4354;49.832;10.746;2023-08-07T12:23:51;14.30;1.00
8633;DHT22;4354;49.832;10.746;2023-08-07T12:26:18;14.20;1.00
8633;DHT22;4354;49.832;10.746;2023-08-07T12:28:45;14.20;1.00
8633;DHT22;4354;49.832;10.746;2023-08-07T12:31:12;14.10;1.00
8633;DHT22;4354;49.832;10.746;2023-08-07T12:33:38;14.00;1.00
8633;DHT22;4354;49.832;10.746;2023-08-07T12:36:05;14.00;1.00
8633;DHT22;4354;49.832;10.746;2023-08-07T12:38:46;13.90;1.00
8633;DHT22;4354;49.832;10.746;2023-08-07T12:41:13;13.90;1.00
8633;DHT22;4354;49.832;10.746;2023-08-07T12:43:43;13.80;1.00
8633;DHT22;4354;49.832;10.746;2023-08-07T12:46:10;13.70;1.00
8633;DHT22;4354;49.832;10.746;2023-08-07T12:48:40;13.80;1.00
8633;DHT22;4354;49.832;10.746;2023-08-07T12:51:07;13.70;1.00
8633;DHT22;4354;49.832;10.746;2023-08-07T12:53:34;13.80;1.00
8633;DHT22;4354;49.832;10.746;2023-08-07T12:56:01;13.80;1.00
8633;DHT22;4354;49.832;10.746;2023-08-07T12:58:29;13.80;1.00
8633;DHT22;4354;49.832;10.746;2023-08-07T13:00:56;13.80;1.00
8633;DHT22;4354;49.832;10.746;2023-08-07T13:03:23;13.80;1.00
8633;DHT22;4354;49.832;10.746;2023-08-07T13:05:50;14.00;1.00
8633;DHT22;4354;49.832;10.746;2023-08-07T13:08:17;14.00;1.00
8633;DHT22;4354;49.832;10.746;2023-08-07T13:10:44;14.20;1.00
8633;DHT22;4354;49.832;10.746;2023-08-07T13:13:15;14.20;1.00
8633;DHT22;4354;49.832;10.746;2023-08-07T13:15:42;14.20;1.00
8633;DHT22;4354;49.832;10.746;2023-08-07T13:18:08;14.30;1.00
8633;DHT22;4354;49.832;10.746;2023-08-07T13:20:35;14.40;1.00
8633;DHT22;4354;49.832;10.746;2023-08-07T13:23:02;14.40;1.00
8633;DHT22;4354;49.832;10.746;2023-08-07T13:25:32;14.40;1.00
8633;DHT22;4354;49.832;10.746;2023-08-07T13:27:59;14.40;1.00
8633;DHT22;4354;49.832;10.746;2023-08-07T13:30:26;14.40;1.00
8633;DHT22;4354;49.832;10.746;2023-08-07T13:33:01;14.40;1.00
8633;DHT22;4354;49.832;10.746;2023-08-07T13:35:28;14.30;1.00
8633;DHT22;4354;49.832;10.746;2023-08-07T13:37:56;14.30;1.00
8633;DHT22;4354;49.832;10.746;2023-08-07T13:40:22;14.20;1.00
8633;DHT22;4354;49.832;10.746;2023-08-07T13:42:49;14.00;1.00
8633;DHT22;4354;49.832;10.746;2023-08-07T13:45:16;14.00;1.00
8633;DHT22;4354;49.832;10.746;2023-08-07T13:47:43;14.00;1.00
8633;DHT22;4354;49.832;10.746;2023-08-07T13:50:10;13.90;1.00
8633;DHT22;4354;49.832;10.746;2023-08-07T13:52:39;13.80;1.00
8633;DHT22;4354;49.832;10.746;2023-08-07T13:55:06;13.90;1.00
8633;DHT22;4354;49.832;10.746;2023-08-07T13:57:35;13.90;1.00
8633;DHT22;4354;49.832;10.746;2023-08-07T14:00:02;13.90;1.00
8633;DHT22;4354;49.832;10.746;2023-08-07T14:02:29;14.10;1.00
8633;DHT22;4354;49.832;10.746;2023-08-07T14:04:58;14.10;1.00
8633;DHT22;4354;49.832;10.746;2023-08-07T14:07:25;14.20;1.00
8633;DHT22;4354;49.832;10.746;2023-08-07T14:09:52;14.20;1.00
8633;DHT22;4354;49.832;10.746;2023-08-07T14:12:19;14.20;1.00
8633;DHT22;4354;49.832;10.746;2023-08-07T14:14:45;14.20;1.00
8633;DHT22;4354;49.832;10.746;2023-08-07T14:17:12;14.20;1.00
8633;DHT22;4354;49.832;10.746;2023-08-07T14:19:39;14.30;1.00
8633;DHT22;4354;49.832;10.746;2023-08-07T14:22:06;14.30;1.00
8633;DHT22;4354;49.832;10.746;2023-08-07T14:24:32;14.60;1.00
8633;DHT22;4354;49.832;10.746;2023-08-07T14:26:59;14.80;1.00
8633;DHT22;4354;49.832;10.746;2023-08-07T14:29:26;15.10;1.00
8633;DHT22;4354;49.832;10.746;2023-08-07T14:31:53;15.20;1.00
8633;DHT22;4354;49.832;10.746;2023-08-07T14:34:20;15.50;99.90
8633;DHT22;4354;49.832;10.746;2023-08-07T14:36:47;15.50;1.00
8633;DHT22;4354;49.832;10.746;2023-08-07T14:39:13;15.60;99.90
8633;DHT22;4354;49.832;10.746;2023-08-07T14:41:40;15.60;99.90
8633;DHT22;4354;49.832;10.746;2023-08-07T14:44:07;15.70;1.00
8633;DHT22;4354;49.832;10.746;2023-08-07T14:46:34;15.80;1.00
8633;DHT22;4354;49.832;10.746;2023-08-07T14:49:01;15.70;1.00
8633;DHT22;4354;49.832;10.746;2023-08-07T14:51:28;15.80;1.00
8633;DHT22;4354;49.832;10.746;2023-08-07T14:53:54;15.90;1.00
8633;DHT22;4354;49.832;10.746;2023-08-07T14:56:21;15.90;1.00
8633;DHT22;4354;49.832;10.746;2023-08-07T14:58:48;16.00;99.90
8633;DHT22;4354;49.832;10.746;2023-08-07T15:01:15;16.20;90.70
8633;DHT22;4354;49.832;10.746;2023-08-07T15:03:42;16.20;99.90
8633;DHT22;4354;49.832;10.746;2023-08-07T15:06:09;16.10;1.00
8633;DHT22;4354;49.832;10.746;2023-08-07T15:08:36;16.00;1.00
8633;DHT22;4354;49.832;10.746;2023-08-07T15:11:03;16.00;1.00
8633;DHT22;4354;49.832;10.746;2023-08-07T15:13:29;16.10;1.00
8633;DHT22;4354;49.832;10.746;2023-08-07T15:15:56;16.10;99.90
8633;DHT22;4354;49.832;10.746;2023-08-07T15:18:23;16.50;1.00
8633;DHT22;4354;49.832;10.746;2023-08-07T15:20:50;16.90;1.00
8633;DHT22;4354;49.832;10.746;2023-08-07T15:23:17;16.90;99.90
8633;DHT22;4354;49.832;10.746;2023-08-07T15:25:44;17.00;52.20
8633;DHT22;4354;49.832;10.746;2023-08-07T15:28:11;17.20;1.00
8633;DHT22;4354;49.832;10.746;2023-08-07T15:30:37;17.40;99.90
8633;DHT22;4354;49.832;10.746;2023-08-07T15:33:04;17.60;1.00
8633;DHT22;4354;49.832;10.746;2023-08-07T15:35:32;17.90;1.00
8633;DHT22;4354;49.832;10.746;2023-08-07T15:37:59;17.90;1.00
8633;DHT22;4354;49.832;10.746;2023-08-07T15:40:28;17.60;99.90
8633;DHT22;4354;49.832;10.746;2023-08-07T15:42:55;17.40;99.90
8633;DHT22;4354;49.832;10.746;2023-08-07T15:45:22;17.40;99.90
8633;DHT22;4354;49.832;10.746;2023-08-07T15:47:49;17.40;99.90
8633;DHT22;4354;49.832;10.746;2023-08-07T15:50:16;17.30;99.90
8633;DHT22;4354;49.832;10.746;2023-08-07T15:52:43;17.30;99.90
8633;DHT22;4354;49.832;10.746;2023-08-07T15:55:10;17.30;99.90
8633;DHT22;4354;49.832;10.746;2023-08-07T15:57:37;17.10;99.90
8633;DHT22;4354;49.832;10.746;2023-08-07T16:00:06;17.20;1.00
8633;DHT22;4354;49.832;10.746;2023-08-07T16:02:33;17.20;99.90